sensor_id;sensor_type;location;lat;lon;timestamp;pressure;altitude;pressure_sealevel;temperature;humidity
19600;BME280;9947;57.722;12.012;2023-04-30T00:00:15;101031.53;;;4.95;92.96
19600;BME280;9947;57.722;12.012;2023-04-30T00:02:42;101039.84;;;4.89;93.22
19600;BME280;9947;57.722;12.012;2023-04-30T00:05:12;101048.69;;;4.91;91.52
19600;BME280;9947;57.722;12.012;2023-04-30T00:07:49;101039.22;;;4.84;93.18
19600;BME280;9947;57.722;12.012;2023-04-30T00:10:20;101045.59;;;4.81;93.15
19600;BME280;9947;57.722;12.012;2023-04-30T00:12:47;101050.16;;;4.79;93.18
19600;BME280;9947;57.722;12.012;2023-04-30T00:15:17;101051.47;;;4.71;94.29
19600;BME280;9947;57.722;12.012;2023-04-30T00:17:45;101060.88;;;4.79;92.24
19600;BME280;9947;57.722;12.012;2023-04-30T00:20:14;101059.47;;;4.89;87.90
19600;BME280;9947;57.722;12.012;2023-04-30T00:22:42;101061.50;;;4.84;89.71
19600;BME280;9947;57.722;12.012;2023-04-30T00:25:14;101056.06;;;4.86;87.73
19600;BME280;9947;57.722;12.012;2023-04-30T00:27:41;101059.63;;;4.86;87.37
19600;BME280;9947;57.722;12.012;2023-04-30T00:30:09;101059.91;;;4.80;87.38
19600;BME280;9947;57.722;12.012;2023-04-30T00:32:38;101056.06;;;4.67;88.46
19600;BME280;9947;57.722;12.012;2023-04-30T00:35:10;101066.13;;;4.62;89.91
19600;BME280;9947;57.722;12.012;2023-04-30T00:37:41;101062.59;;;4.61;88.31
19600;BME280;9947;57.722;12.012;2023-04-30T00:42:56;101069.25;;;4.53;89.19
19600;BME280;9947;57.722;12.012;2023-04-30T00:45:27;101065.63;;;4.54;89.81
19600;BME280;9947;57.722;12.012;2023-04-30T00:47:55;101070.13;;;4.53;90.11
19600;BME280;9947;57.722;12.012;2023-04-30T00:50:26;101069.59;;;4.64;90.66
19600;BME280;9947;57.722;12.012;2023-04-30T00:52:54;101072.09;;;4.69;90.54
19600;BME280;9947;57.722;12.012;2023-04-30T00:55:25;101073.88;;;4.68;91.49
19600;BME280;9947;57.722;12.012;2023-04-30T00:57:57;101075.75;;;4.66;92.05
19600;BME280;9947;57.722;12.012;2023-04-30T01:00:24;101072.34;;;4.62;92.56
19600;BME280;9947;57.722;12.012;2023-04-30T01:02:52;101076.78;;;4.63;92.46
19600;BME280;9947;57.722;12.012;2023-04-30T01:05:24;101075.03;;;4.62;90.96
19600;BME280;9947;57.722;12.012;2023-04-30T01:07:59;101077.63;;;4.64;90.44
19600;BME280;9947;57.722;12.012;2023-04-30T01:10:34;101076.28;;;4.55;91.22
19600;BME280;9947;57.722;12.012;2023-04-30T01:13:15;101078.81;;;4.58;90.76
19600;BME280;9947;57.722;12.012;2023-04-30T01:16:05;101075.53;;;4.52;91.88
19600;BME280;9947;57.722;12.012;2023-04-30T01:18:44;101084.22;;;4.57;92.13
19600;BME280;9947;57.722;12.012;2023-04-30T01:21:18;101089.00;;;4.50;93.30
19600;BME280;9947;57.722;12.012;2023-04-30T01:23:58;101095.69;;;4.40;94.56
19600;BME280;9947;57.722;12.012;2023-04-30T01:26:52;101103.94;;;4.36;95.72
19600;BME280;9947;57.722;12.012;2023-04-30T01:29:35;101103.81;;;4.39;96.14
19600;BME280;9947;57.722;12.012;2023-04-30T01:32:05;101102.34;;;4.31;96.85
19600;BME280;9947;57.722;12.012;2023-04-30T01:34:39;101109.72;;;4.26;96.92
19600;BME280;9947;57.722;12.012;2023-04-30T01:37:15;101110.72;;;4.24;96.89
19600;BME280;9947;57.722;12.012;2023-04-30T01:39:57;101112.19;;;4.31;96.68
19600;BME280;9947;57.722;12.012;2023-04-30T01:42:35;101111.47;;;4.27;97.16
19600;BME280;9947;57.722;12.012;2023-04-30T01:45:30;101110.16;;;4.17;98.50
19600;BME280;9947;57.722;12.012;2023-04-30T01:48:04;101112.69;;;4.20;98.60
19600;BME280;9947;57.722;12.012;2023-04-30T01:50:40;101112.19;;;4.31;96.69
19600;BME280;9947;57.722;12.012;2023-04-30T01:53:15;101112.47;;;4.25;97.28
19600;BME280;9947;57.722;12.012;2023-04-30T01:55:50;101107.25;;;4.22;97.91
19600;BME280;9947;57.722;12.012;2023-04-30T01:58:19;101116.28;;;4.19;97.15
19600;BME280;9947;57.722;12.012;2023-04-30T02:00:50;101116.09;;;4.24;96.49
19600;BME280;9947;57.722;12.012;2023-04-30T02:03:20;101115.28;;;4.22;95.85
19600;BME280;9947;57.722;12.012;2023-04-30T02:05:53;101124.19;;;4.22;96.68
19600;BME280;9947;57.722;12.012;2023-04-30T02:08:21;101118.28;;;4.14;97.93
19600;BME280;9947;57.722;12.012;2023-04-30T02:10:51;101125.50;;;4.12;97.19
19600;BME280;9947;57.722;12.012;2023-04-30T02:13:20;101122.97;;;4.09;96.84
19600;BME280;9947;57.722;12.012;2023-04-30T02:15:50;101119.22;;;4.13;96.46
19600;BME280;9947;57.722;12.012;2023-04-30T02:18:19;101133.22;;;4.20;94.80
19600;BME280;9947;57.722;12.012;2023-04-30T02:20:47;101127.31;;;4.12;95.80
19600;BME280;9947;57.722;12.012;2023-04-30T02:23:15;101132.13;;;4.03;97.02
19600;BME280;9947;57.722;12.012;2023-04-30T02:25:46;101141.22;;;3.99;96.88
19600;BME280;9947;57.722;12.012;2023-04-30T02:28:17;101146.31;;;4.06;96.15
19600;BME280;9947;57.722;12.012;2023-04-30T02:30:44;101144.50;;;4.06;96.74
19600;BME280;9947;57.722;12.012;2023-04-30T02:33:18;101144.50;;;4.06;95.57
19600;BME280;9947;57.722;12.012;2023-04-30T02:35:47;101143.56;;;4.07;95.02
19600;BME280;9947;57.722;12.012;2023-04-30T02:38:15;101139.00;;;4.09;95.26
19600;BME280;9947;57.722;12.012;2023-04-30T02:40:45;101146.09;;;4.10;94.75
19600;BME280;9947;57.722;12.012;2023-04-30T02:43:13;101142.84;;;4.03;94.74
19600;BME280;9947;57.722;12.012;2023-04-30T02:45:40;101147.44;;;4.00;95.84
19600;BME280;9947;57.722;12.012;2023-04-30T02:48:07;101144.84;;;3.98;96.06
19600;BME280;9947;57.722;12.012;2023-04-30T02:50:39;101141.38;;;3.96;96.18
19600;BME280;9947;57.722;12.012;2023-04-30T02:53:09;101148.66;;;3.93;96.25
19600;BME280;9947;57.722;12.012;2023-04-30T02:55:36;101144.25;;;3.92;96.35
19600;BME280;9947;57.722;12.012;2023-04-30T02:58:05;101147.00;;;3.90;97.22
19600;BME280;9947;57.722;12.012;2023-04-30T03:00:32;101150.56;;;3.89;97.36
19600;BME280;9947;57.722;12.012;2023-04-30T03:02:59;101148.91;;;3.87;97.38
19600;BME280;9947;57.722;12.012;2023-04-30T03:05:28;101157.78;;;3.87;97.82
19600;BME280;9947;57.722;12.012;2023-04-30T03:07:58;101158.66;;;3.88;97.11
19600;BME280;9947;57.722;12.012;2023-04-30T03:10:26;101160.66;;;3.83;97.56
19600;BME280;9947;57.722;12.012;2023-04-30T03:12:56;101158.13;;;3.80;98.37
19600;BME280;9947;57.722;12.012;2023-04-30T03:15:24;101163.19;;;3.86;97.45
19600;BME280;9947;57.722;12.012;2023-04-30T03:17:52;101161.22;;;3.91;97.18
19600;BME280;9947;57.722;12.012;2023-04-30T03:20:19;101162.53;;;3.81;97.76
19600;BME280;9947;57.722;12.012;2023-04-30T03:22:50;101162.19;;;3.88;97.04
19600;BME280;9947;57.722;12.012;2023-04-30T03:25:19;101166.00;;;3.83;98.29
19600;BME280;9947;57.722;12.012;2023-04-30T03:27:49;101165.72;;;3.90;96.54
19600;BME280;9947;57.722;12.012;2023-04-30T03:30:16;101174.53;;;3.92;96.50
19600;BME280;9947;57.722;12.012;2023-04-30T03:32:47;101163.84;;;3.92;96.63
19600;BME280;9947;57.722;12.012;2023-04-30T03:35:14;101179.63;;;3.98;97.29
19600;BME280;9947;57.722;12.012;2023-04-30T03:37:42;101170.75;;;4.18;97.25
19600;BME280;9947;57.722;12.012;2023-04-30T03:40:11;101177.09;;;4.36;96.09
19600;BME280;9947;57.722;12.012;2023-04-30T03:42:40;101176.94;;;4.39;97.11
19600;BME280;9947;57.722;12.012;2023-04-30T03:45:08;101184.44;;;4.51;97.24
19600;BME280;9947;57.722;12.012;2023-04-30T03:47:36;101187.78;;;4.56;95.88
19600;BME280;9947;57.722;12.012;2023-04-30T03:50:03;101191.59;;;4.71;96.02
19600;BME280;9947;57.722;12.012;2023-04-30T03:52:33;101193.63;;;4.85;94.37
19600;BME280;9947;57.722;12.012;2023-04-30T03:55:05;101200.50;;;4.90;94.35
19600;BME280;9947;57.722;12.012;2023-04-30T03:57:34;101197.47;;;4.79;94.51
19600;BME280;9947;57.722;12.012;2023-04-30T04:00:08;101203.84;;;4.77;94.08
19600;BME280;9947;57.722;12.012;2023-04-30T04:02:35;101194.97;;;4.95;92.14
19600;BME280;9947;57.722;12.012;2023-04-30T04:05:07;101207.16;;;5.21;90.57
19600;BME280;9947;57.722;12.012;2023-04-30T04:07:35;101202.06;;;5.52;88.29
19600;BME280;9947;57.722;12.012;2023-04-30T04:10:02;101210.94;;;5.72;85.20
19600;BME280;9947;57.722;12.012;2023-04-30T04:12:30;101216.06;;;5.95;84.62
19600;BME280;9947;57.722;12.012;2023-04-30T04:15:04;101205.50;;;5.92;83.45
19600;BME280;9947;57.722;12.012;2023-04-30T04:17:34;101217.25;;;5.90;83.34
19600;BME280;9947;57.722;12.012;2023-04-30T04:20:04;101218.84;;;6.11;82.83
19600;BME280;9947;57.722;12.012;2023-04-30T04:22:33;101218.47;;;6.36;79.92
19600;BME280;9947;57.722;12.012;2023-04-30T04:25:00;101214.72;;;6.73;77.15
19600;BME280;9947;57.722;12.012;2023-04-30T04:27:29;101215.31;;;6.95;74.62
19600;BME280;9947;57.722;12.012;2023-04-30T04:29:57;101211.91;;;7.09;73.04
19600;BME280;9947;57.722;12.012;2023-04-30T04:32:29;101211.66;;;7.45;70.22
19600;BME280;9947;57.722;12.012;2023-04-30T04:34:59;101221.31;;;7.65;68.23
19600;BME280;9947;57.722;12.012;2023-04-30T04:37:26;101218.41;;;7.99;66.74
19600;BME280;9947;57.722;12.012;2023-04-30T04:39:53;101216.66;;;8.14;64.50
19600;BME280;9947;57.722;12.012;2023-04-30T04:42:22;101222.00;;;7.84;63.61
19600;BME280;9947;57.722;12.012;2023-04-30T04:44:49;101223.38;;;7.76;63.97
19600;BME280;9947;57.722;12.012;2023-04-30T04:47:18;101229.53;;;7.46;64.43
19600;BME280;9947;57.722;12.012;2023-04-30T04:49:47;101228.50;;;7.33;63.98
19600;BME280;9947;57.722;12.012;2023-04-30T04:52:17;101227.94;;;7.26;65.38
19600;BME280;9947;57.722;12.012;2023-04-30T04:54:47;101227.75;;;7.62;63.47
19600;BME280;9947;57.722;12.012;2023-04-30T04:57:15;101234.16;;;7.60;62.20
19600;BME280;9947;57.722;12.012;2023-04-30T04:59:44;101233.09;;;7.94;61.19
19600;BME280;9947;57.722;12.012;2023-04-30T05:02:16;101252.16;;;8.37;58.42
19600;BME280;9947;57.722;12.012;2023-04-30T05:04:48;101246.38;;;8.73;56.29
19600;BME280;9947;57.722;12.012;2023-04-30T05:07:19;101245.47;;;9.16;54.78
19600;BME280;9947;57.722;12.012;2023-04-30T05:09:48;101254.00;;;10.34;52.06
19600;BME280;9947;57.722;12.012;2023-04-30T05:12:22;101245.38;;;11.68;47.91
19600;BME280;9947;57.722;12.012;2023-04-30T05:14:50;101251.34;;;12.58;45.44
19600;BME280;9947;57.722;12.012;2023-04-30T05:17:18;101259.72;;;12.66;44.08
19600;BME280;9947;57.722;12.012;2023-04-30T05:19:45;101260.34;;;12.11;44.86
19600;BME280;9947;57.722;12.012;2023-04-30T05:22:17;101260.97;;;12.38;44.17
19600;BME280;9947;57.722;12.012;2023-04-30T05:24:47;101263.06;;;12.11;44.11
19600;BME280;9947;57.722;12.012;2023-04-30T05:27:18;101271.31;;;10.71;45.92
19600;BME280;9947;57.722;12.012;2023-04-30T05:29:46;101277.28;;;11.14;45.80
19600;BME280;9947;57.722;12.012;2023-04-30T05:32:20;101273.47;;;10.91;45.69
19600;BME280;9947;57.722;12.012;2023-04-30T05:34:49;101277.00;;;11.68;44.53
19600;BME280;9947;57.722;12.012;2023-04-30T05:37:18;101281.75;;;12.02;43.36
19600;BME280;9947;57.722;12.012;2023-04-30T05:39:51;101283.69;;;11.26;44.73
19600;BME280;9947;57.722;12.012;2023-04-30T05:42:19;101281.81;;;10.75;45.88
19600;BME280;9947;57.722;12.012;2023-04-30T05:44:49;101285.47;;;10.74;45.74
19600;BME280;9947;57.722;12.012;2023-04-30T05:47:18;101280.31;;;11.35;45.88
19600;BME280;9947;57.722;12.012;2023-04-30T05:49:46;101284.50;;;11.64;44.73
19600;BME280;9947;57.722;12.012;2023-04-30T05:52:14;101295.06;;;10.66;45.09
19600;BME280;9947;57.722;12.012;2023-04-30T05:57:44;101304.53;;;10.73;45.14
19600;BME280;9947;57.722;12.012;2023-04-30T06:00:15;101301.34;;;10.12;44.88
19600;BME280;9947;57.722;12.012;2023-04-30T06:02:54;101300.94;;;9.77;46.17
19600;BME280;9947;57.722;12.012;2023-04-30T06:05:24;101291.41;;;9.72;45.95
19600;BME280;9947;57.722;12.012;2023-04-30T06:07:52;101299.06;;;10.21;45.41
19600;BME280;9947;57.722;12.012;2023-04-30T06:10:30;101302.19;;;10.94;44.96
19600;BME280;9947;57.722;12.012;2023-04-30T06:13:06;101300.75;;;10.88;44.85
19600;BME280;9947;57.722;12.012;2023-04-30T06:15:36;101297.88;;;11.29;43.54
19600;BME280;9947;57.722;12.012;2023-04-30T06:18:04;101305.34;;;11.26;43.63
19600;BME280;9947;57.722;12.012;2023-04-30T06:20:32;101304.84;;;10.00;44.53
19600;BME280;9947;57.722;12.012;2023-04-30T06:23:01;101307.72;;;9.56;45.83
19600;BME280;9947;57.722;12.012;2023-04-30T06:25:32;101311.84;;;9.62;46.02
19600;BME280;9947;57.722;12.012;2023-04-30T06:28:02;101315.72;;;9.57;46.09
19600;BME280;9947;57.722;12.012;2023-04-30T06:30:41;101312.72;;;9.19;46.99
19600;BME280;9947;57.722;12.012;2023-04-30T06:33:15;101317.38;;;8.87;47.47
19600;BME280;9947;57.722;12.012;2023-04-30T06:35:47;101318.84;;;8.63;48.72
19600;BME280;9947;57.722;12.012;2023-04-30T06:38:29;101314.53;;;8.29;49.92
19600;BME280;9947;57.722;12.012;2023-04-30T06:48:35;101315.34;;;8.15;49.32
19600;BME280;9947;57.722;12.012;2023-04-30T06:51:05;101324.00;;;8.52;49.37
19600;BME280;9947;57.722;12.012;2023-04-30T06:53:38;101323.16;;;8.36;49.77
19600;BME280;9947;57.722;12.012;2023-04-30T06:56:08;101324.84;;;8.68;49.99
19600;BME280;9947;57.722;12.012;2023-04-30T06:58:35;101331.41;;;8.78;48.52
19600;BME280;9947;57.722;12.012;2023-04-30T07:01:08;101328.84;;;8.61;48.28
19600;BME280;9947;57.722;12.012;2023-04-30T07:03:39;101326.09;;;7.84;49.11
19600;BME280;9947;57.722;12.012;2023-04-30T07:06:09;101333.88;;;7.72;50.28
19600;BME280;9947;57.722;12.012;2023-04-30T07:08:37;101321.59;;;7.84;51.80
19600;BME280;9947;57.722;12.012;2023-04-30T07:11:11;101335.06;;;7.84;52.79
19600;BME280;9947;57.722;12.012;2023-04-30T07:13:43;101336.72;;;7.54;53.22
19600;BME280;9947;57.722;12.012;2023-04-30T07:16:10;101332.97;;;7.89;52.05
19600;BME280;9947;57.722;12.012;2023-04-30T07:18:44;101342.56;;;7.78;51.43
19600;BME280;9947;57.722;12.012;2023-04-30T07:21:17;101344.25;;;7.47;51.27
19600;BME280;9947;57.722;12.012;2023-04-30T07:23:48;101355.09;;;7.46;51.08
19600;BME280;9947;57.722;12.012;2023-04-30T07:26:25;101333.66;;;7.93;51.46
19600;BME280;9947;57.722;12.012;2023-04-30T07:28:55;101345.84;;;8.77;50.98
19600;BME280;9947;57.722;12.012;2023-04-30T07:31:29;101342.94;;;8.50;50.24
19600;BME280;9947;57.722;12.012;2023-04-30T07:34:00;101353.63;;;8.04;51.92
19600;BME280;9947;57.722;12.012;2023-04-30T07:36:30;101362.75;;;8.18;52.91
19600;BME280;9947;57.722;12.012;2023-04-30T07:38:59;101359.28;;;8.63;52.74
19600;BME280;9947;57.722;12.012;2023-04-30T07:41:33;101363.66;;;8.80;50.49
19600;BME280;9947;57.722;12.012;2023-04-30T07:44:15;101361.91;;;8.79;49.65
19600;BME280;9947;57.722;12.012;2023-04-30T07:46:44;101366.78;;;8.42;50.52
19600;BME280;9947;57.722;12.012;2023-04-30T07:49:12;101368.63;;;7.77;53.71
19600;BME280;9947;57.722;12.012;2023-04-30T07:51:43;101373.44;;;7.88;56.25
19600;BME280;9947;57.722;12.012;2023-04-30T07:54:12;101366.47;;;7.99;55.78
19600;BME280;9947;57.722;12.012;2023-04-30T07:56:39;101369.00;;;8.02;51.83
19600;BME280;9947;57.722;12.012;2023-04-30T07:59:07;101372.16;;;8.11;52.55
19600;BME280;9947;57.722;12.012;2023-04-30T08:01:38;101372.84;;;8.14;55.16
19600;BME280;9947;57.722;12.012;2023-04-30T08:04:06;101375.00;;;8.71;54.11
19600;BME280;9947;57.722;12.012;2023-04-30T08:06:41;101388.66;;;8.98;53.84
19600;BME280;9947;57.722;12.012;2023-04-30T08:09:09;101386.44;;;9.34;53.44
19600;BME280;9947;57.722;12.012;2023-04-30T08:11:37;101386.63;;;9.17;52.90
19600;BME280;9947;57.722;12.012;2023-04-30T08:14:07;101386.31;;;8.61;52.90
19600;BME280;9947;57.722;12.012;2023-04-30T08:16:37;101386.28;;;8.77;53.75
19600;BME280;9947;57.722;12.012;2023-04-30T08:19:04;101393.28;;;8.65;51.77
19600;BME280;9947;57.722;12.012;2023-04-30T08:21:33;101392.38;;;9.11;51.83
19600;BME280;9947;57.722;12.012;2023-04-30T08:24:03;101393.94;;;9.15;50.88
19600;BME280;9947;57.722;12.012;2023-04-30T08:26:31;101395.88;;;9.27;49.88
19600;BME280;9947;57.722;12.012;2023-04-30T08:29:01;101410.88;;;9.17;50.44
19600;BME280;9947;57.722;12.012;2023-04-30T08:31:29;101404.22;;;8.62;49.93
19600;BME280;9947;57.722;12.012;2023-04-30T08:33:57;101407.56;;;8.82;50.72
19600;BME280;9947;57.722;12.012;2023-04-30T08:36:25;101401.25;;;9.13;49.95
19600;BME280;9947;57.722;12.012;2023-04-30T08:38:56;101408.28;;;9.15;50.42
19600;BME280;9947;57.722;12.012;2023-04-30T08:41:25;101406.66;;;9.13;50.51
19600;BME280;9947;57.722;12.012;2023-04-30T08:44:00;101410.13;;;8.69;46.05
19600;BME280;9947;57.722;12.012;2023-04-30T08:46:30;101404.06;;;8.95;48.25
19600;BME280;9947;57.722;12.012;2023-04-30T08:49:00;101413.78;;;9.14;50.09
19600;BME280;9947;57.722;12.012;2023-04-30T08:51:29;101416.09;;;9.20;51.47
19600;BME280;9947;57.722;12.012;2023-04-30T08:54:02;101423.91;;;8.94;51.02
19600;BME280;9947;57.722;12.012;2023-04-30T08:56:33;101437.56;;;8.91;50.98
19600;BME280;9947;57.722;12.012;2023-04-30T08:59:04;101425.25;;;8.56;49.77
19600;BME280;9947;57.722;12.012;2023-04-30T09:01:31;101436.03;;;8.72;51.95
19600;BME280;9947;57.722;12.012;2023-04-30T09:04:02;101431.44;;;8.42;51.66
19600;BME280;9947;57.722;12.012;2023-04-30T09:06:31;101433.44;;;8.54;50.73
19600;BME280;9947;57.722;12.012;2023-04-30T09:09:08;101442.78;;;8.79;50.36
19600;BME280;9947;57.722;12.012;2023-04-30T09:11:38;101449.28;;;8.60;49.27
19600;BME280;9947;57.722;12.012;2023-04-30T09:14:07;101449.25;;;8.45;49.36
19600;BME280;9947;57.722;12.012;2023-04-30T09:16:46;101450.22;;;8.59;50.34
19600;BME280;9947;57.722;12.012;2023-04-30T09:19:23;101450.81;;;8.00;52.00
19600;BME280;9947;57.722;12.012;2023-04-30T09:21:55;101457.03;;;8.18;52.50
19600;BME280;9947;57.722;12.012;2023-04-30T09:24:26;101447.88;;;8.38;51.88
19600;BME280;9947;57.722;12.012;2023-04-30T09:27:19;101443.88;;;8.45;50.00
19600;BME280;9947;57.722;12.012;2023-04-30T09:29:49;101448.03;;;7.86;52.36
19600;BME280;9947;57.722;12.012;2023-04-30T09:32:17;101444.22;;;8.05;52.98
19600;BME280;9947;57.722;12.012;2023-04-30T09:34:45;101444.31;;;8.69;51.28
19600;BME280;9947;57.722;12.012;2023-04-30T09:37:12;101456.38;;;8.77;50.20
19600;BME280;9947;57.722;12.012;2023-04-30T09:39:48;101458.66;;;8.85;50.42
19600;BME280;9947;57.722;12.012;2023-04-30T09:42:17;101456.75;;;8.22;50.88
19600;BME280;9947;57.722;12.012;2023-04-30T09:44:45;101465.97;;;8.18;50.67
19600;BME280;9947;57.722;12.012;2023-04-30T09:47:14;101458.31;;;8.26;51.29
19600;BME280;9947;57.722;12.012;2023-04-30T09:49:42;101462.91;;;8.42;50.95
19600;BME280;9947;57.722;12.012;2023-04-30T09:52:10;101463.78;;;8.42;50.17
19600;BME280;9947;57.722;12.012;2023-04-30T09:54:40;101472.00;;;8.06;49.41
19600;BME280;9947;57.722;12.012;2023-04-30T09:57:10;101477.06;;;7.79;51.16
19600;BME280;9947;57.722;12.012;2023-04-30T09:59:45;101467.47;;;7.91;53.15
19600;BME280;9947;57.722;12.012;2023-04-30T10:02:15;101472.31;;;8.17;54.27
19600;BME280;9947;57.722;12.012;2023-04-30T10:04:51;101461.41;;;8.52;52.70
19600;BME280;9947;57.722;12.012;2023-04-30T10:07:20;101472.81;;;8.57;52.74
19600;BME280;9947;57.722;12.012;2023-04-30T10:09:56;101468.50;;;8.21;51.18
19600;BME280;9947;57.722;12.012;2023-04-30T10:12:28;101467.09;;;8.63;51.50
19600;BME280;9947;57.722;12.012;2023-04-30T10:15:06;101474.63;;;8.41;51.27
19600;BME280;9947;57.722;12.012;2023-04-30T10:17:40;101467.00;;;8.31;51.31
19600;BME280;9947;57.722;12.012;2023-04-30T10:20:11;101467.34;;;8.74;51.78
19600;BME280;9947;57.722;12.012;2023-04-30T10:22:41;101472.28;;;8.82;51.00
19600;BME280;9947;57.722;12.012;2023-04-30T10:25:11;101474.88;;;8.99;50.79
19600;BME280;9947;57.722;12.012;2023-04-30T10:27:39;101470.19;;;8.07;50.02
19600;BME280;9947;57.722;12.012;2023-04-30T10:30:11;101473.19;;;8.18;50.04
19600;BME280;9947;57.722;12.012;2023-04-30T10:35:32;101475.75;;;8.52;49.88
19600;BME280;9947;57.722;12.012;2023-04-30T10:38:12;101490.47;;;8.47;50.93
19600;BME280;9947;57.722;12.012;2023-04-30T10:40:44;101482.88;;;8.53;52.00
19600;BME280;9947;57.722;12.012;2023-04-30T10:43:30;101480.06;;;8.23;52.76
19600;BME280;9947;57.722;12.012;2023-04-30T10:46:24;101473.53;;;8.60;54.13
19600;BME280;9947;57.722;12.012;2023-04-30T10:48:53;101470.38;;;8.68;53.72
19600;BME280;9947;57.722;12.012;2023-04-30T10:51:22;101480.75;;;8.27;54.01
19600;BME280;9947;57.722;12.012;2023-04-30T10:53:51;101484.81;;;8.18;53.80
19600;BME280;9947;57.722;12.012;2023-04-30T10:56:33;101484.50;;;7.91;55.37
19600;BME280;9947;57.722;12.012;2023-04-30T10:59:07;101480.81;;;8.10;56.24
19600;BME280;9947;57.722;12.012;2023-04-30T11:02:02;101490.34;;;7.99;56.02
19600;BME280;9947;57.722;12.012;2023-04-30T11:05:08;101484.63;;;7.55;55.96
19600;BME280;9947;57.722;12.012;2023-04-30T11:07:46;101483.22;;;7.31;57.73
19600;BME280;9947;57.722;12.012;2023-04-30T11:10:32;101485.97;;;7.64;59.38
19600;BME280;9947;57.722;12.012;2023-04-30T11:13:14;101493.44;;;7.92;57.81
19600;BME280;9947;57.722;12.012;2023-04-30T11:16:02;101481.88;;;8.07;56.52
19600;BME280;9947;57.722;12.012;2023-04-30T11:18:55;101488.22;;;8.22;56.21
19600;BME280;9947;57.722;12.012;2023-04-30T11:21:39;101498.22;;;7.87;55.87
19600;BME280;9947;57.722;12.012;2023-04-30T11:24:08;101500.38;;;7.63;56.79
19600;BME280;9947;57.722;12.012;2023-04-30T11:27:02;101491.59;;;7.59;58.22
19600;BME280;9947;57.722;12.012;2023-04-30T11:29:31;101494.09;;;7.80;57.81
19600;BME280;9947;57.722;12.012;2023-04-30T11:31:59;101485.25;;;8.11;57.26
19600;BME280;9947;57.722;12.012;2023-04-30T11:34:29;101483.19;;;7.83;55.48
19600;BME280;9947;57.722;12.012;2023-04-30T11:36:58;101496.22;;;7.90;56.11
19600;BME280;9947;57.722;12.012;2023-04-30T11:39:27;101487.59;;;8.34;54.23
19600;BME280;9947;57.722;12.012;2023-04-30T11:41:55;101485.69;;;8.36;53.12
19600;BME280;9947;57.722;12.012;2023-04-30T11:44:26;101503.94;;;8.29;54.15
19600;BME280;9947;57.722;12.012;2023-04-30T11:46:54;101499.00;;;8.22;53.95
19600;BME280;9947;57.722;12.012;2023-04-30T11:49:21;101495.19;;;8.59;54.13
19600;BME280;9947;57.722;12.012;2023-04-30T11:51:51;101490.81;;;8.88;52.45
19600;BME280;9947;57.722;12.012;2023-04-30T11:54:20;101492.28;;;8.93;53.09
19600;BME280;9947;57.722;12.012;2023-04-30T11:56:48;101490.25;;;9.13;53.46
19600;BME280;9947;57.722;12.012;2023-04-30T11:59:18;101485.56;;;9.16;53.36
19600;BME280;9947;57.722;12.012;2023-04-30T12:01:47;101492.97;;;9.13;51.10
19600;BME280;9947;57.722;12.012;2023-04-30T12:04:22;101494.13;;;8.93;51.94
19600;BME280;9947;57.722;12.012;2023-04-30T12:06:52;101484.72;;;8.53;51.48
19600;BME280;9947;57.722;12.012;2023-04-30T12:09:22;101503.84;;;8.48;52.56
19600;BME280;9947;57.722;12.012;2023-04-30T12:12:03;101491.25;;;8.31;53.14
19600;BME280;9947;57.722;12.012;2023-04-30T12:14:38;101498.16;;;8.04;55.34
19600;BME280;9947;57.722;12.012;2023-04-30T12:17:08;101499.50;;;8.13;56.40
19600;BME280;9947;57.722;12.012;2023-04-30T12:19:36;101500.81;;;8.21;57.14
19600;BME280;9947;57.722;12.012;2023-04-30T12:22:07;101515.25;;;8.20;57.41
19600;BME280;9947;57.722;12.012;2023-04-30T12:24:36;101508.88;;;8.39;58.03
19600;BME280;9947;57.722;12.012;2023-04-30T12:27:05;101503.25;;;8.90;57.04
19600;BME280;9947;57.722;12.012;2023-04-30T12:29:32;101506.00;;;9.20;54.12
19600;BME280;9947;57.722;12.012;2023-04-30T12:32:02;101511.56;;;9.02;53.92
19600;BME280;9947;57.722;12.012;2023-04-30T12:34:31;101503.75;;;8.97;53.66
19600;BME280;9947;57.722;12.012;2023-04-30T12:36:59;101492.97;;;9.13;54.18
19600;BME280;9947;57.722;12.012;2023-04-30T12:39:34;101505.91;;;9.06;54.09
19600;BME280;9947;57.722;12.012;2023-04-30T12:42:02;101495.31;;;9.03;55.46
19600;BME280;9947;57.722;12.012;2023-04-30T12:44:43;101504.31;;;8.88;55.54
19600;BME280;9947;57.722;12.012;2023-04-30T12:47:11;101499.66;;;8.43;55.42
19600;BME280;9947;57.722;12.012;2023-04-30T12:49:39;101517.31;;;8.31;56.26
19600;BME280;9947;57.722;12.012;2023-04-30T12:52:09;101523.22;;;8.22;56.29
19600;BME280;9947;57.722;12.012;2023-04-30T12:54:38;101518.53;;;8.58;55.44
19600;BME280;9947;57.722;12.012;2023-04-30T12:57:08;101522.72;;;8.64;55.75
19600;BME280;9947;57.722;12.012;2023-04-30T12:59:37;101520.22;;;8.61;54.35
19600;BME280;9947;57.722;12.012;2023-04-30T13:02:07;101525.13;;;8.53;53.97
19600;BME280;9947;57.722;12.012;2023-04-30T13:04:34;101514.34;;;8.84;53.48
19600;BME280;9947;57.722;12.012;2023-04-30T13:07:02;101524.38;;;8.82;53.29
19600;BME280;9947;57.722;12.012;2023-04-30T13:09:30;101513.25;;;8.88;53.58
19600;BME280;9947;57.722;12.012;2023-04-30T13:12:00;101516.97;;;9.02;52.79
19600;BME280;9947;57.722;12.012;2023-04-30T13:14:31;101505.41;;;8.84;54.20
19600;BME280;9947;57.722;12.012;2023-04-30T13:16:59;101511.75;;;8.99;52.23
19600;BME280;9947;57.722;12.012;2023-04-30T13:19:31;101516.75;;;8.59;53.59
19600;BME280;9947;57.722;12.012;2023-04-30T13:21:59;101521.66;;;8.51;54.48
19600;BME280;9947;57.722;12.012;2023-04-30T13:24:26;101520.13;;;8.62;51.60
19600;BME280;9947;57.722;12.012;2023-04-30T13:26:53;101510.81;;;8.68;51.65
19600;BME280;9947;57.722;12.012;2023-04-30T13:29:23;101514.47;;;8.67;50.47
19600;BME280;9947;57.722;12.012;2023-04-30T13:31:50;101504.63;;;8.82;51.45
19600;BME280;9947;57.722;12.012;2023-04-30T13:34:19;101513.94;;;8.92;50.82
19600;BME280;9947;57.722;12.012;2023-04-30T13:36:46;101513.66;;;8.81;49.76